sensor_id;sensor_type;location;lat;lon;timestamp;P1;durP1;ratioP1;P2;durP2;ratioP2
40433;SDS011;26146;51.114;5.654;2023-02-28T00:02:36;10.03;;;3.83;;
40433;SDS011;26146;51.114;5.654;2023-02-28T00:06:38;13.03;;;3.97;;
40433;SDS011;26146;51.114;5.654;2023-02-28T00:10:42;9.83;;;4.03;;
40433;SDS011;26146;51.114;5.654;2023-02-28T00:14:43;12.33;;;4.43;;
40433;SDS011;26146;51.114;5.654;2023-02-28T00:18:44;10.30;;;4.10;;
40433;SDS011;26146;51.114;5.654;2023-02-28T00:22:47;10.47;;;4.20;;
40433;SDS011;26146;51.114;5.654;2023-02-28T00:26:50;9.80;;;4.23;;
40433;SDS011;26146;51.114;5.654;2023-02-28T00:30:51;10.63;;;4.30;;
40433;SDS011;26146;51.114;5.654;2023-02-28T00:34:52;14.10;;;4.37;;
40433;SDS011;26146;51.114;5.654;2023-02-28T00:38:53;12.70;;;4.00;;
40433;SDS011;26146;51.114;5.654;2023-02-28T00:42:54;9.97;;;4.30;;
40433;SDS011;26146;51.114;5.654;2023-02-28T00:46:55;10.60;;;4.27;;
40433;SDS011;26146;51.114;5.654;2023-02-28T00:50:56;12.67;;;4.57;;
40433;SDS011;26146;51.114;5.654;2023-02-28T00:54:59;11.07;;;4.50;;
40433;SDS011;26146;51.114;5.654;2023-02-28T00:59:00;10.20;;;4.47;;
40433;SDS011;26146;51.114;5.654;2023-02-28T01:03:01;10.93;;;4.37;;
40433;SDS011;26146;51.114;5.654;2023-02-28T01:07:02;11.83;;;4.90;;
40433;SDS011;26146;51.114;5.654;2023-02-28T01:11:07;10.70;;;4.60;;
40433;SDS011;26146;51.114;5.654;2023-02-28T01:15:12;11.60;;;4.50;;
40433;SDS011;26146;51.114;5.654;2023-02-28T01:19:13;11.43;;;4.50;;
40433;SDS011;26146;51.114;5.654;2023-02-28T01:23:14;12.73;;;4.60;;
40433;SDS011;26146;51.114;5.654;2023-02-28T01:27:15;11.90;;;4.50;;
40433;SDS011;26146;51.114;5.654;2023-02-28T01:31:16;11.40;;;4.53;;
40433;SDS011;26146;51.114;5.654;2023-02-28T01:35:18;13.07;;;4.43;;
40433;SDS011;26146;51.114;5.654;2023-02-28T01:39:19;11.33;;;4.47;;
40433;SDS011;26146;51.114;5.654;2023-02-28T01:47:28;13.43;;;4.63;;
40433;SDS011;26146;51.114;5.654;2023-02-28T01:51:35;11.77;;;4.70;;
40433;SDS011;26146;51.114;5.654;2023-02-28T01:55:47;12.10;;;4.87;;
40433;SDS011;26146;51.114;5.654;2023-02-28T01:59:52;11.40;;;4.72;;
40433;SDS011;26146;51.114;5.654;2023-02-28T02:03:57;10.43;;;4.07;;
40433;SDS011;26146;51.114;5.654;2023-02-28T02:08:04;9.82;;;4.47;;
40433;SDS011;26146;51.114;5.654;2023-02-28T02:12:16;11.97;;;4.13;;
40433;SDS011;26146;51.114;5.654;2023-02-28T02:16:38;17.00;;;5.10;;
40433;SDS011;26146;51.114;5.654;2023-02-28T02:20:50;12.40;;;4.77;;
40433;SDS011;26146;51.114;5.654;2023-02-28T02:42:01;9.90;;;4.50;;
40433;SDS011;26146;51.114;5.654;2023-02-28T02:46:13;12.13;;;4.83;;
40433;SDS011;26146;51.114;5.654;2023-02-28T02:50:22;10.70;;;4.50;;
40433;SDS011;26146;51.114;5.654;2023-02-28T02:54:36;11.90;;;4.60;;
40433;SDS011;26146;51.114;5.654;2023-02-28T02:58:41;12.47;;;4.90;;
40433;SDS011;26146;51.114;5.654;2023-02-28T03:02:44;12.63;;;4.80;;
40433;SDS011;26146;51.114;5.654;2023-02-28T03:06:47;11.77;;;5.00;;
40433;SDS011;26146;51.114;5.654;2023-02-28T03:10:51;12.77;;;4.60;;
40433;SDS011;26146;51.114;5.654;2023-02-28T03:23:33;12.00;;;4.73;;
40433;SDS011;26146;51.114;5.654;2023-02-28T03:28:00;12.63;;;4.67;;
40433;SDS011;26146;51.114;5.654;2023-02-28T03:32:29;12.33;;;5.13;;
40433;SDS011;26146;51.114;5.654;2023-02-28T03:36:37;11.47;;;4.93;;
40433;SDS011;26146;51.114;5.654;2023-02-28T03:40:47;11.73;;;5.10;;
40433;SDS011;26146;51.114;5.654;2023-02-28T03:45:02;11.60;;;4.70;;
40433;SDS011;26146;51.114;5.654;2023-02-28T03:49:18;11.43;;;5.03;;
40433;SDS011;26146;51.114;5.654;2023-02-28T03:53:30;11.90;;;4.88;;
40433;SDS011;26146;51.114;5.654;2023-02-28T04:01:57;14.53;;;5.47;;
40433;SDS011;26146;51.114;5.654;2023-02-28T04:06:01;13.07;;;5.30;;
40433;SDS011;26146;51.114;5.654;2023-02-28T04:10:03;14.77;;;5.90;;
40433;SDS011;26146;51.114;5.654;2023-02-28T04:14:07;14.03;;;6.23;;
40433;SDS011;26146;51.114;5.654;2023-02-28T04:18:09;13.33;;;5.47;;
40433;SDS011;26146;51.114;5.654;2023-02-28T04:22:10;13.10;;;5.63;;
40433;SDS011;26146;51.114;5.654;2023-02-28T04:26:11;13.80;;;5.80;;
40433;SDS011;26146;51.114;5.654;2023-02-28T04:30:12;12.33;;;5.50;;
40433;SDS011;26146;51.114;5.654;2023-02-28T04:34:13;12.90;;;5.90;;
40433;SDS011;26146;51.114;5.654;2023-02-28T04:38:19;12.93;;;5.70;;
40433;SDS011;26146;51.114;5.654;2023-02-28T04:42:20;15.83;;;5.70;;
40433;SDS011;26146;51.114;5.654;2023-02-28T04:46:22;12.83;;;5.20;;
40433;SDS011;26146;51.114;5.654;2023-02-28T04:50:25;12.30;;;5.37;;
40433;SDS011;26146;51.114;5.654;2023-02-28T04:54:31;13.53;;;5.60;;
40433;SDS011;26146;51.114;5.654;2023-02-28T04:58:32;13.63;;;5.30;;
40433;SDS011;26146;51.114;5.654;2023-02-28T05:02:34;13.03;;;5.40;;
40433;SDS011;26146;51.114;5.654;2023-02-28T05:06:35;13.07;;;5.67;;
40433;SDS011;26146;51.114;5.654;2023-02-28T05:10:38;11.30;;;5.10;;
40433;SDS011;26146;51.114;5.654;2023-02-28T05:14:39;12.47;;;5.37;;
40433;SDS011;26146;51.114;5.654;2023-02-28T05:18:40;13.67;;;5.70;;
40433;SDS011;26146;51.114;5.654;2023-02-28T05:22:41;12.23;;;5.40;;
40433;SDS011;26146;51.114;5.654;2023-02-28T05:26:43;15.20;;;5.07;;
40433;SDS011;26146;51.114;5.654;2023-02-28T05:30:44;12.00;;;5.07;;
40433;SDS011;26146;51.114;5.654;2023-02-28T05:34:45;13.03;;;5.00;;
40433;SDS011;26146;51.114;5.654;2023-02-28T05:38:47;12.50;;;5.43;;
40433;SDS011;26146;51.114;5.654;2023-02-28T05:42:49;12.97;;;5.40;;
40433;SDS011;26146;51.114;5.654;2023-02-28T05:46:51;12.33;;;5.27;;
40433;SDS011;26146;51.114;5.654;2023-02-28T05:50:52;11.17;;;5.33;;
40433;SDS011;26146;51.114;5.654;2023-02-28T05:54:53;14.53;;;5.37;;
40433;SDS011;26146;51.114;5.654;2023-02-28T05:58:54;13.20;;;5.30;;
40433;SDS011;26146;51.114;5.654;2023-02-28T06:02:55;13.73;;;5.70;;
40433;SDS011;26146;51.114;5.654;2023-02-28T06:11:42;14.80;;;5.13;;
40433;SDS011;26146;51.114;5.654;2023-02-28T06:15:44;13.67;;;5.30;;
40433;SDS011;26146;51.114;5.654;2023-02-28T06:19:45;12.43;;;5.33;;
40433;SDS011;26146;51.114;5.654;2023-02-28T06:23:45;13.33;;;5.50;;
40433;SDS011;26146;51.114;5.654;2023-02-28T06:27:46;12.33;;;5.33;;
40433;SDS011;26146;51.114;5.654;2023-02-28T06:31:48;12.83;;;5.73;;
40433;SDS011;26146;51.114;5.654;2023-02-28T06:35:50;12.50;;;5.20;;
40433;SDS011;26146;51.114;5.654;2023-02-28T06:39:51;14.20;;;5.07;;
40433;SDS011;26146;51.114;5.654;2023-02-28T06:43:52;12.93;;;5.23;;
40433;SDS011;26146;51.114;5.654;2023-02-28T06:47:54;13.60;;;4.90;;
40433;SDS011;26146;51.114;5.654;2023-02-28T06:51:55;15.33;;;5.30;;
40433;SDS011;26146;51.114;5.654;2023-02-28T06:55:56;12.40;;;4.73;;
40433;SDS011;26146;51.114;5.654;2023-02-28T07:00:00;11.80;;;4.80;;
40433;SDS011;26146;51.114;5.654;2023-02-28T07:04:03;12.40;;;5.07;;
40433;SDS011;26146;51.114;5.654;2023-02-28T07:08:07;15.17;;;4.90;;
40433;SDS011;26146;51.114;5.654;2023-02-28T07:12:08;13.40;;;5.30;;
40433;SDS011;26146;51.114;5.654;2023-02-28T07:16:11;12.57;;;5.27;;
40433;SDS011;26146;51.114;5.654;2023-02-28T07:20:13;12.33;;;4.87;;
40433;SDS011;26146;51.114;5.654;2023-02-28T07:24:14;12.10;;;4.40;;
40433;SDS011;26146;51.114;5.654;2023-02-28T07:28:16;12.60;;;4.70;;
40433;SDS011;26146;51.114;5.654;2023-02-28T07:32:17;11.40;;;4.00;;
40433;SDS011;26146;51.114;5.654;2023-02-28T07:36:18;11.23;;;4.40;;
40433;SDS011;26146;51.114;5.654;2023-02-28T07:40:22;10.60;;;4.07;;
40433;SDS011;26146;51.114;5.654;2023-02-28T07:44:28;12.20;;;4.27;;
40433;SDS011;26146;51.114;5.654;2023-02-28T07:48:29;12.53;;;4.70;;
40433;SDS011;26146;51.114;5.654;2023-02-28T07:52:30;12.53;;;4.17;;
40433;SDS011;26146;51.114;5.654;2023-02-28T07:56:31;11.47;;;4.27;;
40433;SDS011;26146;51.114;5.654;2023-02-28T08:00:32;11.80;;;4.90;;
40433;SDS011;26146;51.114;5.654;2023-02-28T08:04:33;12.30;;;4.50;;
40433;SDS011;26146;51.114;5.654;2023-02-28T08:08:34;12.83;;;4.30;;
40433;SDS011;26146;51.114;5.654;2023-02-28T08:12:35;11.27;;;4.53;;
40433;SDS011;26146;51.114;5.654;2023-02-28T08:16:36;12.60;;;5.20;;
40433;SDS011;26146;51.114;5.654;2023-02-28T08:20:40;18.30;;;5.90;;
40433;SDS011;26146;51.114;5.654;2023-02-28T08:24:41;12.13;;;3.97;;
40433;SDS011;26146;51.114;5.654;2023-02-28T08:28:43;14.83;;;4.07;;
40433;SDS011;26146;51.114;5.654;2023-02-28T08:32:44;15.03;;;4.87;;
40433;SDS011;26146;51.114;5.654;2023-02-28T08:36:45;11.40;;;3.97;;
40433;SDS011;26146;51.114;5.654;2023-02-28T08:40:46;10.67;;;3.50;;
40433;SDS011;26146;51.114;5.654;2023-02-28T08:44:47;10.83;;;3.77;;
40433;SDS011;26146;51.114;5.654;2023-02-28T08:48:51;8.67;;;3.40;;
40433;SDS011;26146;51.114;5.654;2023-02-28T08:52:53;8.23;;;3.10;;
40433;SDS011;26146;51.114;5.654;2023-02-28T08:56:54;9.93;;;3.27;;
40433;SDS011;26146;51.114;5.654;2023-02-28T09:00:55;11.60;;;3.23;;
40433;SDS011;26146;51.114;5.654;2023-02-28T09:04:57;9.90;;;3.33;;
40433;SDS011;26146;51.114;5.654;2023-02-28T09:08:58;9.53;;;2.90;;
40433;SDS011;26146;51.114;5.654;2023-02-28T09:13:01;8.83;;;2.63;;
40433;SDS011;26146;51.114;5.654;2023-02-28T09:17:02;8.10;;;2.80;;
40433;SDS011;26146;51.114;5.654;2023-02-28T09:21:04;7.80;;;2.70;;
40433;SDS011;26146;51.114;5.654;2023-02-28T09:25:06;9.50;;;2.70;;
40433;SDS011;26146;51.114;5.654;2023-02-28T09:29:09;7.87;;;2.80;;
40433;SDS011;26146;51.114;5.654;2023-02-28T09:33:11;8.60;;;2.57;;
40433;SDS011;26146;51.114;5.654;2023-02-28T09:37:13;9.03;;;2.27;;
40433;SDS011;26146;51.114;5.654;2023-02-28T09:41:17;7.60;;;2.10;;
40433;SDS011;26146;51.114;5.654;2023-02-28T09:45:26;6.90;;;1.90;;
40433;SDS011;26146;51.114;5.654;2023-02-28T09:49:34;6.40;;;1.70;;
40433;SDS011;26146;51.114;5.654;2023-02-28T09:53:41;5.73;;;1.93;;
40433;SDS011;26146;51.114;5.654;2023-02-28T09:57:42;6.93;;;1.93;;
40433;SDS011;26146;51.114;5.654;2023-02-28T10:01:55;5.87;;;1.90;;
40433;SDS011;26146;51.114;5.654;2023-02-28T10:10:29;5.85;;;1.90;;
40433;SDS011;26146;51.114;5.654;2023-02-28T10:14:39;5.43;;;1.73;;
40433;SDS011;26146;51.114;5.654;2023-02-28T10:18:50;5.53;;;1.70;;
40433;SDS011;26146;51.114;5.654;2023-02-28T10:23:04;6.03;;;1.90;;
40433;SDS011;26146;51.114;5.654;2023-02-28T10:27:21;5.97;;;1.60;;
40433;SDS011;26146;51.114;5.654;2023-02-28T10:31:24;5.13;;;1.40;;
40433;SDS011;26146;51.114;5.654;2023-02-28T10:35:25;5.80;;;1.73;;
40433;SDS011;26146;51.114;5.654;2023-02-28T10:39:38;5.57;;;1.50;;
40433;SDS011;26146;51.114;5.654;2023-02-28T10:43:40;5.90;;;1.63;;
40433;SDS011;26146;51.114;5.654;2023-02-28T10:51:59;6.53;;;1.70;;
40433;SDS011;26146;51.114;5.654;2023-02-28T11:00:18;7.50;;;1.60;;
40433;SDS011;26146;51.114;5.654;2023-02-28T11:08:22;5.97;;;1.60;;
40433;SDS011;26146;51.114;5.654;2023-02-28T11:12:37;7.40;;;1.87;;
40433;SDS011;26146;51.114;5.654;2023-02-28T11:16:41;5.93;;;1.80;;
40433;SDS011;26146;51.114;5.654;2023-02-28T11:20:42;6.83;;;1.63;;
40433;SDS011;26146;51.114;5.654;2023-02-28T11:24:51;6.70;;;1.70;;
40433;SDS011;26146;51.114;5.654;2023-02-28T11:29:12;8.03;;;2.00;;
40433;SDS011;26146;51.114;5.654;2023-02-28T11:33:27;5.63;;;1.83;;
40433;SDS011;26146;51.114;5.654;2023-02-28T11:37:31;7.27;;;2.10;;
40433;SDS011;26146;51.114;5.654;2023-02-28T11:50:51;7.17;;;1.97;;
40433;SDS011;26146;51.114;5.654;2023-02-28T11:55:14;6.20;;;2.10;;
40433;SDS011;26146;51.114;5.654;2023-02-28T11:59:52;8.13;;;2.00;;
40433;SDS011;26146;51.114;5.654;2023-02-28T12:08:46;6.63;;;2.00;;
40433;SDS011;26146;51.114;5.654;2023-02-28T12:16:53;7.07;;;2.20;;
40433;SDS011;26146;51.114;5.654;2023-02-28T12:33:36;6.87;;;2.00;;
40433;SDS011;26146;51.114;5.654;2023-02-28T12:42:13;7.53;;;2.37;;
40433;SDS011;26146;51.114;5.654;2023-02-28T12:46:32;6.63;;;2.27;;
40433;SDS011;26146;51.114;5.654;2023-02-28T12:50:40;7.97;;;2.00;;
40433;SDS011;26146;51.114;5.654;2023-02-28T12:58:58;7.20;;;1.95;;
40433;SDS011;26146;51.114;5.654;2023-02-28T13:03:21;6.03;;;2.00;;
40433;SDS011;26146;51.114;5.654;2023-02-28T13:15:56;6.67;;;2.30;;
40433;SDS011;26146;51.114;5.654;2023-02-28T13:19:58;6.97;;;2.38;;
40433;SDS011;26146;51.114;5.654;2023-02-28T13:24:03;6.00;;;2.10;;
40433;SDS011;26146;51.114;5.654;2023-02-28T13:28:10;5.90;;;2.20;;
40433;SDS011;26146;51.114;5.654;2023-02-28T13:36:25;6.82;;;2.30;;
40433;SDS011;26146;51.114;5.654;2023-02-28T13:40:31;6.87;;;1.93;;
40433;SDS011;26146;51.114;5.654;2023-02-28T14:10:41;6.67;;;2.10;;
40433;SDS011;26146;51.114;5.654;2023-02-28T14:19:29;6.30;;;1.90;;
40433;SDS011;26146;51.114;5.654;2023-02-28T14:27:36;6.83;;;1.83;;
40433;SDS011;26146;51.114;5.654;2023-02-28T14:31:43;5.67;;;1.77;;
40433;SDS011;26146;51.114;5.654;2023-02-28T14:40:04;8.67;;;2.13;;
40433;SDS011;26146;51.114;5.654;2023-02-28T14:48:20;6.90;;;2.30;;
40433;SDS011;26146;51.114;5.654;2023-02-28T14:52:26;7.27;;;2.40;;
40433;SDS011;26146;51.114;5.654;2023-02-28T14:56:36;6.40;;;2.00;;
40433;SDS011;26146;51.114;5.654;2023-02-28T15:00:47;7.20;;;2.20;;
40433;SDS011;26146;51.114;5.654;2023-02-28T15:04:53;6.40;;;2.07;;
40433;SDS011;26146;51.114;5.654;2023-02-28T15:09:08;7.20;;;2.50;;
40433;SDS011;26146;51.114;5.654;2023-02-28T15:13:14;9.47;;;2.97;;
40433;SDS011;26146;51.114;5.654;2023-02-28T15:17:19;6.57;;;2.10;;
40433;SDS011;26146;51.114;5.654;2023-02-28T15:21:25;6.43;;;2.23;;
40433;SDS011;26146;51.114;5.654;2023-02-28T15:25:28;5.97;;;2.20;;
40433;SDS011;26146;51.114;5.654;2023-02-28T15:29:29;7.47;;;2.40;;
40433;SDS011;26146;51.114;5.654;2023-02-28T15:33:38;7.47;;;2.20;;
40433;SDS011;26146;51.114;5.654;2023-02-28T15:42:27;7.40;;;2.60;;
40433;SDS011;26146;51.114;5.654;2023-02-28T15:46:29;6.57;;;2.30;;
40433;SDS011;26146;51.114;5.654;2023-02-28T15:50:32;7.33;;;2.60;;
40433;SDS011;26146;51.114;5.654;2023-02-28T15:54:34;6.23;;;2.33;;
40433;SDS011;26146;51.114;5.654;2023-02-28T15:58:38;7.20;;;2.40;;
40433;SDS011;26146;51.114;5.654;2023-02-28T16:02:39;9.03;;;2.80;;
40433;SDS011;26146;51.114;5.654;2023-02-28T16:07:00;6.83;;;2.30;;
40433;SDS011;26146;51.114;5.654;2023-02-28T16:11:02;7.43;;;2.50;;
40433;SDS011;26146;51.114;5.654;2023-02-28T16:15:23;6.33;;;2.00;;
40433;SDS011;26146;51.114;5.654;2023-02-28T16:19:29;7.68;;;2.60;;
40433;SDS011;26146;51.114;5.654;2023-02-28T16:23:31;7.27;;;2.40;;
40433;SDS011;26146;51.114;5.654;2023-02-28T16:27:33;7.87;;;2.40;;
40433;SDS011;26146;51.114;5.654;2023-02-28T16:35:38;9.77;;;3.53;;
40433;SDS011;26146;51.114;5.654;2023-02-28T16:39:39;8.77;;;2.40;;
40433;SDS011;26146;51.114;5.654;2023-02-28T16:43:41;7.47;;;2.50;;
40433;SDS011;26146;51.114;5.654;2023-02-28T16:47:43;6.93;;;2.30;;
40433;SDS011;26146;51.114;5.654;2023-02-28T16:51:44;7.80;;;2.23;;
40433;SDS011;26146;51.114;5.654;2023-02-28T16:55:45;6.87;;;2.43;;
40433;SDS011;26146;51.114;5.654;2023-02-28T16:59:48;6.73;;;2.30;;
40433;SDS011;26146;51.114;5.654;2023-02-28T17:03:51;7.40;;;2.47;;
40433;SDS011;26146;51.114;5.654;2023-02-28T17:07:52;7.27;;;2.67;;
40433;SDS011;26146;51.114;5.654;2023-02-28T17:11:52;6.63;;;2.53;;
40433;SDS011;26146;51.114;5.654;2023-02-28T17:15:53;6.80;;;2.53;;
40433;SDS011;26146;51.114;5.654;2023-02-28T17:19:55;8.73;;;2.90;;
40433;SDS011;26146;51.114;5.654;2023-02-28T17:23:55;9.23;;;3.13;;
40433;SDS011;26146;51.114;5.654;2023-02-28T17:27:57;8.27;;;3.20;;
40433;SDS011;26146;51.114;5.654;2023-02-28T17:31:57;8.97;;;3.10;;
40433;SDS011;26146;51.114;5.654;2023-02-28T17:35:58;10.10;;;3.37;;
40433;SDS011;26146;51.114;5.654;2023-02-28T17:40:02;9.23;;;3.20;;
40433;SDS011;26146;51.114;5.654;2023-02-28T17:44:03;9.43;;;3.40;;
40433;SDS011;26146;51.114;5.654;2023-02-28T17:48:04;10.13;;;3.40;;
40433;SDS011;26146;51.114;5.654;2023-02-28T17:52:06;9.17;;;3.37;;
40433;SDS011;26146;51.114;5.654;2023-02-28T17:56:11;10.17;;;3.63;;
40433;SDS011;26146;51.114;5.654;2023-02-28T18:00:16;11.07;;;3.73;;
40433;SDS011;26146;51.114;5.654;2023-02-28T18:04:17;9.80;;;4.37;;
40433;SDS011;26146;51.114;5.654;2023-02-28T18:08:18;10.17;;;4.10;;
40433;SDS011;26146;51.114;5.654;2023-02-28T18:12:19;10.10;;;4.40;;
40433;SDS011;26146;51.114;5.654;2023-02-28T18:16:20;17.10;;;7.40;;
40433;SDS011;26146;51.114;5.654;2023-02-28T18:20:22;13.30;;;6.50;;
40433;SDS011;26146;51.114;5.654;2023-02-28T18:24:25;10.07;;;4.50;;
40433;SDS011;26146;51.114;5.654;2023-02-28T18:28:26;9.07;;;4.23;;
40433;SDS011;26146;51.114;5.654;2023-02-28T18:32:28;8.30;;;3.97;;
40433;SDS011;26146;51.114;5.654;2023-02-28T18:36:29;9.77;;;3.80;;
40433;SDS011;26146;51.114;5.654;2023-02-28T18:40:30;10.07;;;4.00;;
40433;SDS011;26146;51.114;5.654;2023-02-28T18:44:31;9.20;;;4.20;;
40433;SDS011;26146;51.114;5.654;2023-02-28T18:48:32;9.47;;;4.30;;
40433;SDS011;26146;51.114;5.654;2023-02-28T18:52:34;12.03;;;4.30;;
40433;SDS011;26146;51.114;5.654;2023-02-28T18:56:35;12.50;;;5.10;;
40433;SDS011;26146;51.114;5.654;2023-02-28T19:00:37;11.40;;;5.63;;
40433;SDS011;26146;51.114;5.654;2023-02-28T19:04:40;10.50;;;4.67;;
40433;SDS011;26146;51.114;5.654;2023-02-28T19:08:41;9.87;;;4.57;;
40433;SDS011;26146;51.114;5.654;2023-02-28T19:12:42;14.47;;;4.50;;
40433;SDS011;26146;51.114;5.654;2023-02-28T19:16:43;9.00;;;4.00;;
40433;SDS011;26146;51.114;5.654;2023-02-28T19:20:46;9.30;;;4.10;;
40433;SDS011;26146;51.114;5.654;2023-02-28T19:24:49;11.67;;;4.20;;
40433;SDS011;26146;51.114;5.654;2023-02-28T19:28:51;9.57;;;4.47;;
40433;SDS011;26146;51.114;5.654;2023-02-28T19:32:52;12.80;;;4.57;;
40433;SDS011;26146;51.114;5.654;2023-02-28T19:36:53;11.43;;;4.80;;
40433;SDS011;26146;51.114;5.654;2023-02-28T19:41:04;28.33;;;9.90;;
40433;SDS011;26146;51.114;5.654;2023-02-28T19:45:10;14.07;;;5.93;;
40433;SDS011;26146;51.114;5.654;2023-02-28T19:49:13;11.13;;;4.47;;
40433;SDS011;26146;51.114;5.654;2023-02-28T19:53:14;9.43;;;3.90;;
40433;SDS011;26146;51.114;5.654;2023-02-28T19:57:15;10.63;;;4.80;;
40433;SDS011;26146;51.114;5.654;2023-02-28T20:01:18;10.50;;;4.50;;
40433;SDS011;26146;51.114;5.654;2023-02-28T20:05:19;10.80;;;4.60;;
40433;SDS011;26146;51.114;5.654;2023-02-28T20:09:20;10.50;;;4.10;;
40433;SDS011;26146;51.114;5.654;2023-02-28T20:13:21;10.70;;;5.37;;
40433;SDS011;26146;51.114;5.654;2023-02-28T20:17:24;12.03;;;5.80;;
40433;SDS011;26146;51.114;5.654;2023-02-28T20:21:25;11.17;;;5.73;;
40433;SDS011;26146;51.114;5.654;2023-02-28T20:25:26;13.47;;;6.33;;
40433;SDS011;26146;51.114;5.654;2023-02-28T20:29:27;13.93;;;5.77;;
40433;SDS011;26146;51.114;5.654;2023-02-28T20:33:29;13.07;;;5.90;;
40433;SDS011;26146;51.114;5.654;2023-02-28T20:37:30;11.87;;;6.03;;
40433;SDS011;26146;51.114;5.654;2023-02-28T20:41:33;13.90;;;6.50;;
40433;SDS011;26146;51.114;5.654;2023-02-28T20:45:34;15.07;;;7.13;;
40433;SDS011;26146;51.114;5.654;2023-02-28T20:49:35;12.60;;;5.87;;
40433;SDS011;26146;51.114;5.654;2023-02-28T20:53:36;25.40;;;8.37;;
40433;SDS011;26146;51.114;5.654;2023-02-28T20:57:37;17.47;;;7.27;;
40433;SDS011;26146;51.114;5.654;2023-02-28T21:01:38;14.13;;;6.70;;
40433;SDS011;26146;51.114;5.654;2023-02-28T21:05:42;15.63;;;7.17;;
40433;SDS011;26146;51.114;5.654;2023-02-28T21:09:43;14.00;;;7.40;;
40433;SDS011;26146;51.114;5.654;2023-02-28T21:13:44;15.00;;;6.83;;
40433;SDS011;26146;51.114;5.654;2023-02-28T21:17:46;16.17;;;7.47;;
40433;SDS011;26146;51.114;5.654;2023-02-28T21:21:47;14.30;;;6.73;;
40433;SDS011;26146;51.114;5.654;2023-02-28T21:25:49;15.70;;;7.20;;
40433;SDS011;26146;51.114;5.654;2023-02-28T21:29:50;13.17;;;7.10;;
40433;SDS011;26146;51.114;5.654;2023-02-28T21:33:51;14.80;;;7.00;;
40433;SDS011;26146;51.114;5.654;2023-02-28T21:37:53;12.53;;;6.50;;
40433;SDS011;26146;51.114;5.654;2023-02-28T21:41:54;12.60;;;6.87;;
40433;SDS011;26146;51.114;5.654;2023-02-28T21:46:05;16.40;;;7.60;;
40433;SDS011;26146;51.114;5.654;2023-02-28T21:50:08;16.87;;;7.40;;
40433;SDS011;26146;51.114;5.654;2023-02-28T21:54:10;14.67;;;7.17;;
40433;SDS011;26146;51.114;5.654;2023-02-28T21:58:11;15.23;;;6.80;;
40433;SDS011;26146;51.114;5.654;2023-02-28T22:02:13;14.40;;;6.70;;
40433;SDS011;26146;51.114;5.654;2023-02-28T22:06:15;13.67;;;7.03;;
40433;SDS011;26146;51.114;5.654;2023-02-28T22:10:18;13.23;;;6.47;;
40433;SDS011;26146;51.114;5.654;2023-02-28T22:14:22;13.47;;;6.27;;
40433;SDS011;26146;51.114;5.654;2023-02-28T22:22:26;12.60;;;5.87;;
40433;SDS011;26146;51.114;5.654;2023-02-28T22:26:27;14.83;;;6.03;;
40433;SDS011;26146;51.114;5.654;2023-02-28T22:30:28;13.83;;;6.27;;
40433;SDS011;26146;51.114;5.654;2023-02-28T22:34:29;13.60;;;5.87;;
40433;SDS011;26146;51.114;5.654;2023-02-28T22:38:30;14.23;;;5.73;;
40433;SDS011;26146;51.114;5.654;2023-02-28T22:42:34;15.47;;;5.63;;
40433;SDS011;26146;51.114;5.654;2023-02-28T22:46:35;12.37;;;5.40;;
40433;SDS011;26146;51.114;5.654;2023-02-28T22:50:36;13.07;;;5.63;;
40433;SDS011;26146;51.114;5.654;2023-02-28T22:54:37;12.93;;;5.27;;
40433;SDS011;26146;51.114;5.654;2023-02-28T23:02:47;11.50;;;5.13;;
40433;SDS011;26146;51.114;5.654;2023-02-28T23:06:48;11.77;;;5.23;;
40433;SDS011;26146;51.114;5.654;2023-02-28T23:10:49;12.90;;;5.20;;
40433;SDS011;26146;51.114;5.654;2023-02-28T23:14:51;11.77;;;5.60;;
40433;SDS011;26146;51.114;5.654;2023-02-28T23:18:52;13.07;;;6.00;;
40433;SDS011;26146;51.114;5.654;2023-02-28T23:22:54;12.67;;;6.23;;
40433;SDS011;26146;51.114;5.654;2023-02-28T23:26:56;14.63;;;5.83;;
40433;SDS011;26146;51.114;5.654;2023-02-28T23:31:01;14.23;;;7.00;;
40433;SDS011;26146;51.114;5.654;2023-02-28T23:39:07;14.53;;;6.53;;
40433;SDS011;26146;51.114;5.654;2023-02-28T23:43:08;14.67;;;6.50;;
40433;SDS011;26146;51.114;5.654;2023-02-28T23:47:09;15.77;;;6.40;;
40433;SDS011;26146;51.114;5.654;2023-02-28T23:51:14;13.37;;;6.27;;
40433;SDS011;26146;51.114;5.654;2023-02-28T23:55:19;18.63;;;7.50;;
40433;SDS011;26146;51.114;5.654;2023-02-28T23:59:23;16.50;;;6.97;;
